createdAt,value
2023-05-25T00:00:59.909Z,73
2023-05-25T00:01:50.782Z,73
2023-05-25T00:02:58.179Z,73
2023-05-25T00:04:05.163Z,73
2023-05-25T00:05:11.565Z,73
2023-05-25T00:06:18.688Z,72
2023-05-25T00:07:25.880Z,72
2023-05-25T00:08:32.910Z,72
2023-05-25T00:09:40.007Z,72
2023-05-25T00:10:46.602Z,72
2023-05-25T00:11:53.729Z,72
2023-05-25T00:13:00.819Z,72
2023-05-25T00:14:07.929Z,72
2023-05-25T00:15:15.035Z,72
2023-05-25T00:16:21.634Z,72
2023-05-25T00:17:28.840Z,72
2023-05-25T00:18:35.859Z,73
2023-05-25T00:19:42.960Z,73
2023-05-25T00:20:50.005Z,73
2023-05-25T00:21:56.630Z,73
2023-05-25T00:23:03.757Z,73
2023-05-25T00:24:10.817Z,73
2023-05-25T00:25:17.910Z,73
2023-05-25T00:26:25.052Z,73
2023-05-25T00:27:31.583Z,73
2023-05-25T00:28:38.747Z,73
2023-05-25T00:29:45.868Z,73
2023-05-25T00:30:53.030Z,73
2023-05-25T00:32:00.057Z,73
2023-05-25T00:34:13.776Z,73
2023-05-25T00:35:20.816Z,73
2023-05-25T00:36:27.948Z,73
2023-05-25T00:37:35.066Z,72
2023-05-25T00:38:41.620Z,73
2023-05-25T00:39:48.740Z,72
2023-05-25T00:40:55.901Z,73
2023-05-25T00:42:02.998Z,73
2023-05-25T00:43:10.046Z,73
2023-05-25T00:44:16.816Z,72
2023-05-25T00:45:23.722Z,73
2023-05-25T00:46:30.889Z,73
2023-05-25T00:47:38.023Z,73
2023-05-25T00:48:44.556Z,72
2023-05-25T00:49:51.606Z,72
2023-05-25T00:50:58.744Z,72
2023-05-25T00:52:05.889Z,72
2023-05-25T00:53:12.962Z,72
2023-05-25T00:54:19.584Z,72
2023-05-25T00:55:26.695Z,72
2023-05-25T00:56:33.809Z,72
2023-05-25T00:57:40.826Z,71
2023-05-25T00:58:48.018Z,71
2023-05-25T00:59:54.528Z,71
2023-05-25T01:01:01.639Z,71
2023-05-25T01:02:08.832Z,71
2023-05-25T01:03:15.927Z,71
2023-05-25T01:04:22.966Z,71
2023-05-25T01:05:29.624Z,71
2023-05-25T01:06:36.690Z,71
2023-05-25T01:07:43.830Z,71
2023-05-25T01:08:50.898Z,71
2023-05-25T01:09:58.020Z,71
2023-05-25T01:11:04.581Z,71
2023-05-25T01:12:11.665Z,71
2023-05-25T01:13:18.771Z,71
2023-05-25T01:14:25.967Z,71
2023-05-25T01:15:32.975Z,71
2023-05-25T01:16:39.597Z,71
2023-05-25T01:17:46.721Z,71
2023-05-25T01:18:53.800Z,71
2023-05-25T01:20:10.598Z,71
2023-05-25T01:21:07.989Z,71
2023-05-25T01:22:14.557Z,71
2023-05-25T01:23:21.662Z,71
2023-05-25T01:24:28.794Z,71
2023-05-25T01:25:35.952Z,71
2023-05-25T01:26:42.979Z,71
2023-05-25T01:28:56.738Z,71
2023-05-25T01:30:03.778Z,71
2023-05-25T01:31:10.929Z,71
2023-05-25T01:32:18.166Z,71
2023-05-25T01:33:25.178Z,71
2023-05-25T01:34:31.732Z,71
2023-05-25T01:35:38.928Z,71
2023-05-25T01:37:53.015Z,71
2023-05-25T01:38:59.641Z,71
2023-05-25T01:40:06.728Z,71
2023-05-25T01:41:13.821Z,71
2023-05-25T01:42:20.951Z,71
2023-05-25T01:43:28.015Z,71
2023-05-25T01:44:34.759Z,72
2023-05-25T01:45:41.995Z,72
2023-05-25T01:46:48.857Z,72
2023-05-25T01:47:55.977Z,72
2023-05-25T01:49:03.018Z,72
2023-05-25T01:50:09.672Z,72
2023-05-25T01:51:16.717Z,72
2023-05-25T01:52:23.900Z,72
2023-05-25T01:53:30.908Z,72
2023-05-25T01:54:38.076Z,72
2023-05-25T01:55:44.956Z,72
2023-05-25T01:56:51.757Z,72
2023-05-25T01:57:58.833Z,72
2023-05-25T01:59:05.951Z,72
2023-05-25T02:00:12.529Z,72
2023-05-25T02:01:19.721Z,72
2023-05-25T02:02:26.823Z,72
2023-05-25T02:03:33.857Z,72
2023-05-25T02:04:40.993Z,72
2023-05-25T02:05:47.599Z,73
2023-05-25T02:06:54.672Z,73
2023-05-25T02:08:01.706Z,73
2023-05-25T02:09:08.925Z,73
2023-05-25T02:10:15.979Z,73
2023-05-25T02:11:23.025Z,73
2023-05-25T02:12:29.651Z,73
2023-05-25T02:13:36.770Z,73
2023-05-25T02:14:43.886Z,73
2023-05-25T02:15:51.054Z,73
2023-05-25T02:16:57.558Z,73
2023-05-25T02:18:04.718Z,73
2023-05-25T02:19:11.762Z,73
2023-05-25T02:20:19.017Z,74
2023-05-25T02:21:25.992Z,74
2023-05-25T02:22:32.579Z,74
2023-05-25T02:23:39.723Z,74
2023-05-25T02:24:46.832Z,74
2023-05-25T02:25:53.971Z,74
2023-05-25T02:27:01.012Z,74
2023-05-25T02:28:07.592Z,74
2023-05-25T02:29:14.691Z,74
2023-05-25T02:30:21.758Z,74
2023-05-25T02:31:28.957Z,74
2023-05-25T02:32:36.133Z,74
2023-05-25T02:33:42.581Z,74
2023-05-25T02:34:49.711Z,74
2023-05-25T02:35:56.813Z,73
2023-05-25T02:37:03.895Z,73
2023-05-25T02:38:10.980Z,73
2023-05-25T02:39:17.634Z,73
2023-05-25T02:41:31.765Z,72
2023-05-25T02:42:38.891Z,72
2023-05-25T02:43:46.021Z,72
2023-05-25T02:44:52.862Z,72
2023-05-25T02:45:59.741Z,71
2023-05-25T02:47:06.871Z,71
2023-05-25T02:48:13.893Z,71
2023-05-25T02:49:20.973Z,71
2023-05-25T02:50:27.601Z,71
2023-05-25T02:51:34.719Z,71
2023-05-25T02:52:41.810Z,71
2023-05-25T02:53:48.978Z,70
2023-05-25T02:54:56.026Z,70
2023-05-25T02:57:09.766Z,70
2023-05-25T02:58:16.957Z,70
2023-05-25T02:59:23.925Z,70
2023-05-25T03:00:31.001Z,70
2023-05-25T03:01:37.661Z,70
2023-05-25T03:02:44.786Z,70
2023-05-25T03:03:51.818Z,69
2023-05-25T03:05:00.004Z,69
2023-05-25T03:06:06.030Z,69
2023-05-25T03:07:12.620Z,69
2023-05-25T03:08:19.756Z,69
2023-05-25T03:09:26.933Z,69
2023-05-25T03:10:33.910Z,69
2023-05-25T03:11:41.066Z,69
2023-05-25T03:12:47.680Z,69
2023-05-25T03:13:54.785Z,68
2023-05-25T03:15:01.824Z,68
2023-05-25T03:16:12.125Z,68
2023-05-25T03:17:15.585Z,68
2023-05-25T03:18:22.603Z,68
2023-05-25T03:19:29.790Z,68
2023-05-25T03:20:36.914Z,68
2023-05-25T03:21:43.925Z,68
2023-05-25T03:22:50.498Z,68
2023-05-25T03:23:57.685Z,68
2023-05-25T03:25:04.767Z,68
2023-05-25T03:26:12.175Z,68
2023-05-25T03:27:19.019Z,68
2023-05-25T03:28:25.601Z,68
2023-05-25T03:29:32.677Z,68
2023-05-25T03:30:39.789Z,68
2023-05-25T03:31:46.887Z,68
2023-05-25T03:32:54.486Z,68
2023-05-25T03:34:01.305Z,68
2023-05-25T03:35:07.662Z,68
2023-05-25T03:36:14.781Z,68
2023-05-25T03:37:21.905Z,68
2023-05-25T03:38:28.994Z,68
2023-05-25T03:39:35.588Z,68
2023-05-25T03:40:42.664Z,68
2023-05-25T03:41:49.811Z,68
2023-05-25T03:42:56.938Z,68
2023-05-25T03:45:10.530Z,68
2023-05-25T03:46:17.708Z,68
2023-05-25T03:47:24.852Z,68
2023-05-25T03:48:31.927Z,68
2023-05-25T03:49:39.016Z,68
2023-05-25T03:50:45.626Z,68
2023-05-25T03:51:52.658Z,68
2023-05-25T03:52:59.814Z,69
2023-05-25T03:54:06.892Z,69
2023-05-25T03:55:13.977Z,69
2023-05-25T03:56:20.621Z,69
2023-05-25T03:57:27.720Z,69
2023-05-25T03:58:34.802Z,69
2023-05-25T03:59:41.939Z,69
2023-05-25T04:00:49.094Z,69
2023-05-25T04:01:55.643Z,69
2023-05-25T04:03:02.871Z,69
2023-05-25T04:04:09.939Z,69
2023-05-25T04:05:16.936Z,69
2023-05-25T04:06:24.000Z,69
2023-05-25T04:07:30.576Z,69
2023-05-25T04:08:37.741Z,69
2023-05-25T04:09:44.890Z,69
2023-05-25T04:10:51.920Z,69
2023-05-25T04:11:59.185Z,69
2023-05-25T04:13:05.649Z,69
2023-05-25T04:14:12.851Z,69
2023-05-25T04:15:19.877Z,69
2023-05-25T04:16:26.941Z,69
2023-05-25T04:17:34.041Z,69
2023-05-25T04:18:40.574Z,69
2023-05-25T04:19:47.710Z,69
2023-05-25T04:20:54.873Z,69
2023-05-25T04:22:01.901Z,69
2023-05-25T04:23:09.054Z,69
2023-05-25T04:25:22.728Z,69
2023-05-25T04:26:29.882Z,69
2023-05-25T04:27:36.970Z,68
2023-05-25T04:28:44.004Z,68
2023-05-25T04:29:50.653Z,68
2023-05-25T04:30:57.728Z,68
2023-05-25T04:32:04.892Z,68
2023-05-25T04:33:12.004Z,68
2023-05-25T04:34:18.553Z,68
2023-05-25T04:35:25.712Z,68
2023-05-25T04:36:32.845Z,67
2023-05-25T04:37:39.899Z,67
2023-05-25T04:38:46.971Z,67
2023-05-25T04:39:54.106Z,67
2023-05-25T04:41:00.605Z,67
2023-05-25T04:42:07.750Z,67
2023-05-25T04:43:14.907Z,67
2023-05-25T04:44:22.016Z,67
2023-05-25T04:45:28.547Z,67
2023-05-25T04:46:35.660Z,67
2023-05-25T04:48:49.889Z,67
2023-05-25T04:49:56.956Z,67
2023-05-25T04:51:03.514Z,67
2023-05-25T04:52:10.673Z,67
2023-05-25T04:53:17.759Z,67
2023-05-25T04:54:24.911Z,67
2023-05-25T04:55:31.992Z,67
2023-05-25T04:56:38.574Z,67
2023-05-25T04:57:45.702Z,67
2023-05-25T04:58:52.809Z,67
2023-05-25T04:59:59.899Z,66
2023-05-25T05:01:07.583Z,66
2023-05-25T05:02:13.566Z,66
2023-05-25T05:03:20.776Z,66
2023-05-25T05:04:27.828Z,66
2023-05-25T05:05:34.911Z,66
2023-05-25T05:06:41.989Z,66
2023-05-25T05:07:48.584Z,66
2023-05-25T05:08:55.664Z,66
2023-05-25T05:10:02.846Z,66
2023-05-25T05:11:09.936Z,66
2023-05-25T05:12:17.047Z,67
2023-05-25T05:13:23.587Z,67
2023-05-25T05:14:30.649Z,67
2023-05-25T05:15:37.854Z,67
2023-05-25T05:16:45.025Z,67
2023-05-25T05:17:52.016Z,67
2023-05-25T05:18:58.592Z,67
2023-05-25T05:20:05.734Z,67
2023-05-25T05:21:12.867Z,67
2023-05-25T05:22:19.958Z,67
2023-05-25T05:23:27.047Z,67
2023-05-25T05:24:33.628Z,67
2023-05-25T05:25:40.713Z,67
2023-05-25T05:26:56.303Z,67
2023-05-25T05:27:54.931Z,67
2023-05-25T05:29:02.030Z,67
2023-05-25T05:30:08.613Z,67
2023-05-25T05:31:15.760Z,67
2023-05-25T05:32:22.943Z,67
2023-05-25T05:33:30.029Z,67
2023-05-25T05:34:37.051Z,67
2023-05-25T05:35:43.913Z,67
2023-05-25T05:36:58.019Z,67
2023-05-25T05:37:57.892Z,67
2023-05-25T05:39:04.946Z,67
2023-05-25T05:40:12.025Z,67
2023-05-25T05:41:18.629Z,67
2023-05-25T05:42:25.729Z,67
2023-05-25T05:43:32.870Z,66
2023-05-25T05:44:39.989Z,66
2023-05-25T05:45:47.187Z,66
2023-05-25T05:46:53.653Z,66
2023-05-25T05:48:00.788Z,66
2023-05-25T05:49:07.839Z,66
2023-05-25T05:50:14.973Z,66
2023-05-25T05:53:35.830Z,66
2023-05-25T05:54:42.835Z,66
2023-05-25T05:55:52.339Z,66
2023-05-25T05:56:56.560Z,66
2023-05-25T05:58:03.701Z,66
2023-05-25T05:59:10.765Z,66
2023-05-25T06:00:17.887Z,66
2023-05-25T06:01:24.988Z,66
2023-05-25T06:02:31.634Z,66
2023-05-25T06:03:38.666Z,66
2023-05-25T06:04:45.833Z,66
2023-05-25T06:05:52.899Z,66
2023-05-25T06:07:00.170Z,66
2023-05-25T06:08:07.340Z,66
2023-05-25T06:09:13.629Z,66
2023-05-25T06:10:20.765Z,66
2023-05-25T06:11:27.867Z,66
2023-05-25T06:12:35.092Z,66
2023-05-25T06:13:41.544Z,66
2023-05-25T06:14:48.701Z,66
2023-05-25T06:15:55.749Z,66
2023-05-25T06:17:02.929Z,66
2023-05-25T06:18:10.072Z,66
2023-05-25T06:19:16.631Z,66
2023-05-25T06:20:23.722Z,66
2023-05-25T06:21:30.782Z,66
2023-05-25T06:22:37.964Z,66
2023-05-25T06:23:45.024Z,66
2023-05-25T06:24:51.567Z,66
2023-05-25T06:25:58.692Z,66
2023-05-25T06:27:05.750Z,66
2023-05-25T06:28:12.915Z,66
2023-05-25T06:29:20.534Z,66
2023-05-25T06:30:26.609Z,66
2023-05-25T06:31:33.724Z,66
2023-05-25T06:32:40.863Z,66
2023-05-25T06:33:47.930Z,66
2023-05-25T06:34:55.546Z,66
2023-05-25T06:36:01.560Z,66
2023-05-25T06:37:08.747Z,66
2023-05-25T06:38:15.836Z,66
2023-05-25T06:39:22.893Z,66
2023-05-25T06:40:30.601Z,66
2023-05-25T06:41:36.594Z,66
2023-05-25T06:42:43.663Z,66
2023-05-25T06:43:50.785Z,66
2023-05-25T06:44:57.958Z,66
2023-05-25T06:46:05.117Z,66
2023-05-25T06:47:11.604Z,66
2023-05-25T06:48:18.763Z,66
2023-05-25T06:49:25.917Z,66
2023-05-25T06:50:32.906Z,66
2023-05-25T06:51:40.028Z,66
2023-05-25T06:52:46.608Z,66
2023-05-25T06:53:53.699Z,66
2023-05-25T06:56:07.980Z,66
2023-05-25T06:57:15.078Z,66
2023-05-25T06:58:21.603Z,65
2023-05-25T06:59:28.803Z,65
2023-05-25T07:00:35.840Z,65
2023-05-25T07:01:42.966Z,65
2023-05-25T07:02:50.094Z,65
2023-05-25T07:03:56.619Z,65
2023-05-25T07:05:03.764Z,65
2023-05-25T07:06:12.250Z,65
2023-05-25T07:07:17.983Z,65
2023-05-25T07:08:24.554Z,65
2023-05-25T07:09:31.617Z,65
2023-05-25T07:10:38.722Z,65
2023-05-25T07:11:45.867Z,66
2023-05-25T07:12:52.937Z,66
2023-05-25T07:13:59.564Z,66
2023-05-25T07:15:06.826Z,66
2023-05-25T07:16:13.734Z,66
2023-05-25T07:17:20.881Z,66
2023-05-25T07:18:28.015Z,66
2023-05-25T07:19:34.570Z,66
2023-05-25T07:21:48.797Z,66
2023-05-25T07:22:55.920Z,66
2023-05-25T07:24:02.980Z,65
2023-05-25T07:25:09.594Z,65
2023-05-25T07:26:16.690Z,66
2023-05-25T07:27:23.765Z,65
2023-05-25T07:28:30.898Z,65
2023-05-25T07:29:38.022Z,66
2023-05-25T07:30:44.570Z,66
2023-05-25T07:31:51.753Z,66
2023-05-25T07:32:58.849Z,66
2023-05-25T07:34:05.916Z,66
2023-05-25T07:35:13.009Z,66
2023-05-25T07:36:19.590Z,66
2023-05-25T07:37:26.725Z,66
2023-05-25T07:38:33.789Z,66
2023-05-25T07:39:40.915Z,66
2023-05-25T07:40:47.961Z,66
2023-05-25T07:41:54.551Z,66
2023-05-25T07:43:01.698Z,66
2023-05-25T07:44:08.795Z,66
2023-05-25T07:45:15.962Z,66
2023-05-25T07:46:23.005Z,66
2023-05-25T07:47:29.700Z,66
2023-05-25T07:48:36.697Z,66
2023-05-25T07:49:43.808Z,66
2023-05-25T07:50:50.897Z,66
2023-05-25T07:51:58.075Z,67
2023-05-25T07:53:04.604Z,67
2023-05-25T07:54:11.661Z,67
2023-05-25T07:55:18.871Z,67
2023-05-25T07:56:25.985Z,67
2023-05-25T07:57:33.033Z,67
2023-05-25T07:59:46.750Z,67
2023-05-25T08:00:53.826Z,67
2023-05-25T08:02:00.966Z,67
2023-05-25T08:03:08.256Z,67
2023-05-25T08:04:14.776Z,67
2023-05-25T08:05:21.705Z,66
2023-05-25T08:06:28.782Z,66
2023-05-25T08:07:35.934Z,65
2023-05-25T08:08:42.475Z,65
2023-05-25T08:09:49.691Z,65
2023-05-25T08:10:56.787Z,65
2023-05-25T08:12:27.103Z,65
2023-05-25T08:13:10.951Z,65
2023-05-25T08:14:17.525Z,65
2023-05-25T08:15:24.654Z,65
2023-05-25T08:16:31.717Z,65
2023-05-25T08:17:38.836Z,65
2023-05-25T08:18:45.965Z,65
2023-05-25T08:19:52.519Z,65
2023-05-25T08:20:59.652Z,65
2023-05-25T08:22:06.775Z,64
2023-05-25T08:23:13.846Z,64
2023-05-25T08:24:20.914Z,64
2023-05-25T08:25:27.597Z,64
2023-05-25T08:26:45.275Z,64
2023-05-25T08:27:41.741Z,64
2023-05-25T08:28:48.928Z,64
2023-05-25T08:29:56.007Z,64
2023-05-25T08:31:02.545Z,64
2023-05-25T08:32:09.659Z,64
2023-05-25T08:33:16.778Z,64
2023-05-25T08:34:23.848Z,64
2023-05-25T08:35:30.965Z,64
2023-05-25T08:36:37.546Z,64
2023-05-25T08:37:44.662Z,64
2023-05-25T08:38:51.739Z,64
2023-05-25T08:39:58.952Z,64
2023-05-25T08:41:06.074Z,64
2023-05-25T08:42:12.533Z,64
2023-05-25T08:43:19.693Z,64
2023-05-25T08:44:26.770Z,64
2023-05-25T08:45:47.309Z,64
2023-05-25T08:46:40.967Z,64
2023-05-25T08:47:47.751Z,64
2023-05-25T08:50:01.869Z,64
2023-05-25T08:51:10.868Z,63
2023-05-25T08:52:16.005Z,63
2023-05-25T08:53:22.659Z,63
2023-05-25T08:54:29.687Z,63
2023-05-25T08:55:36.813Z,63
2023-05-25T08:56:43.882Z,63
2023-05-25T08:57:50.967Z,63
2023-05-25T08:58:57.579Z,63
2023-05-25T09:00:04.700Z,63
2023-05-25T09:01:11.786Z,64
2023-05-25T09:03:26.127Z,64
2023-05-25T09:04:32.556Z,64
2023-05-25T09:05:39.746Z,64
2023-05-25T09:06:57.302Z,64
2023-05-25T09:07:53.885Z,64
2023-05-25T09:09:00.980Z,64
2023-05-25T09:10:07.635Z,64
2023-05-25T09:11:16.871Z,64
2023-05-25T09:12:21.776Z,64
2023-05-25T09:13:28.956Z,64
2023-05-25T09:14:35.528Z,64
2023-05-25T09:15:42.770Z,63
2023-05-25T09:16:49.901Z,63
2023-05-25T09:17:56.905Z,63
2023-05-25T09:19:03.906Z,63
2023-05-25T09:20:11.035Z,63
2023-05-25T09:21:17.652Z,63
2023-05-25T09:22:24.710Z,63
2023-05-25T09:23:31.812Z,63
2023-05-25T09:24:38.963Z,63
2023-05-25T09:25:46.035Z,63
2023-05-25T09:26:52.677Z,63
2023-05-25T09:28:04.776Z,63
2023-05-25T09:29:06.892Z,63
2023-05-25T09:30:14.000Z,63
2023-05-25T09:31:20.522Z,62
2023-05-25T09:32:27.769Z,62
2023-05-25T09:33:36.829Z,62
2023-05-25T09:34:41.833Z,62
2023-05-25T09:35:49.008Z,62
2023-05-25T09:36:55.771Z,62
2023-05-25T09:38:02.995Z,61
2023-05-25T09:39:09.803Z,61
2023-05-25T09:40:17.696Z,61
2023-05-25T09:41:23.940Z,61
2023-05-25T09:42:30.556Z,60
2023-05-25T09:43:44.590Z,60
2023-05-25T09:44:44.826Z,60
2023-05-25T09:45:51.908Z,60
2023-05-25T09:46:58.988Z,60
2023-05-25T09:48:05.611Z,61
2023-05-25T09:49:12.697Z,61
2023-05-25T09:50:19.762Z,60
2023-05-25T09:51:26.876Z,60
2023-05-25T09:52:33.941Z,60
2023-05-25T09:53:40.538Z,60
2023-05-25T09:54:47.658Z,60
2023-05-25T09:55:54.809Z,60
2023-05-25T09:57:01.864Z,61
2023-05-25T09:58:08.988Z,61
2023-05-25T09:59:15.582Z,61
2023-05-25T10:00:22.644Z,60
2023-05-25T10:01:29.798Z,60
2023-05-25T10:02:37.012Z,60
2023-05-25T10:03:55.341Z,60
2023-05-25T10:04:50.690Z,59
2023-05-25T10:07:04.831Z,59
2023-05-25T10:08:11.901Z,58
2023-05-25T10:09:19.011Z,58
2023-05-25T10:10:25.588Z,58
2023-05-25T10:11:32.652Z,58
2023-05-25T10:12:39.792Z,58
2023-05-25T10:13:46.944Z,58
2023-05-25T10:14:53.983Z,57
2023-05-25T10:16:00.637Z,57
2023-05-25T10:18:14.807Z,57
2023-05-25T10:19:22.038Z,58
2023-05-25T10:20:30.998Z,58
2023-05-25T10:21:35.613Z,58
2023-05-25T10:22:42.683Z,57
2023-05-25T10:23:49.838Z,57
2023-05-25T10:24:56.967Z,57
2023-05-25T10:26:03.492Z,57
2023-05-25T10:27:25.180Z,57
2023-05-25T10:28:17.741Z,57
2023-05-25T10:29:24.893Z,57
2023-05-25T10:30:31.880Z,58
2023-05-25T10:31:38.550Z,58
2023-05-25T10:32:45.802Z,58
2023-05-25T10:33:52.790Z,58
2023-05-25T10:34:59.874Z,57
2023-05-25T10:36:11.348Z,58
2023-05-25T10:37:13.524Z,58
2023-05-25T10:38:20.602Z,58
2023-05-25T10:39:27.720Z,58
2023-05-25T10:40:34.996Z,57
2023-05-25T10:41:41.956Z,57
2023-05-25T10:42:48.532Z,57
2023-05-25T10:43:55.665Z,57
2023-05-25T10:45:02.771Z,57
2023-05-25T10:46:12.300Z,57
2023-05-25T10:47:17.125Z,57
2023-05-25T10:48:23.638Z,57
2023-05-25T10:49:30.621Z,56
2023-05-25T10:50:37.801Z,56
2023-05-25T10:51:44.875Z,57
2023-05-25T10:52:51.955Z,57
2023-05-25T10:53:59.095Z,57
2023-05-25T10:55:05.677Z,57
2023-05-25T10:56:12.767Z,57
2023-05-25T10:57:19.889Z,57
2023-05-25T10:58:26.969Z,57
2023-05-25T10:59:33.522Z,57
2023-05-25T11:00:40.713Z,57
2023-05-25T11:01:47.801Z,56
2023-05-25T11:02:55.023Z,56
2023-05-25T11:04:02.005Z,56
2023-05-25T11:05:08.612Z,56
2023-05-25T11:06:15.726Z,56
2023-05-25T11:07:22.754Z,56
2023-05-25T11:08:29.891Z,56
2023-05-25T11:10:43.550Z,57
2023-05-25T11:11:50.627Z,56
2023-05-25T11:12:57.794Z,56
2023-05-25T11:14:04.909Z,56
2023-05-25T11:15:12.106Z,56
2023-05-25T11:16:18.709Z,56
2023-05-25T11:17:25.732Z,57
2023-05-25T11:18:32.784Z,57
2023-05-25T11:19:39.902Z,56
2023-05-25T11:20:47.209Z,56
2023-05-25T11:21:53.545Z,56
2023-05-25T11:23:00.978Z,56
2023-05-25T11:24:07.786Z,57
2023-05-25T11:25:14.977Z,57
2023-05-25T11:26:21.506Z,56
2023-05-25T11:27:28.577Z,56
2023-05-25T11:28:35.721Z,56
2023-05-25T11:29:42.753Z,56
2023-05-25T11:30:49.982Z,56
2023-05-25T11:31:56.626Z,57
2023-05-25T11:33:03.615Z,57
2023-05-25T11:34:10.661Z,57
2023-05-25T11:35:17.835Z,57
2023-05-25T11:36:24.993Z,57
2023-05-25T11:37:32.085Z,57
2023-05-25T11:38:38.619Z,57
2023-05-25T11:39:45.697Z,57
2023-05-25T11:40:52.908Z,57
2023-05-25T11:41:59.910Z,58
2023-05-25T11:43:06.515Z,58
2023-05-25T11:44:13.619Z,58
2023-05-25T11:46:27.866Z,58
2023-05-25T11:47:35.919Z,58
2023-05-25T11:48:41.491Z,58
2023-05-25T11:49:48.636Z,58
2023-05-25T11:50:55.749Z,57
2023-05-25T11:52:02.830Z,57
2023-05-25T11:53:09.975Z,58
2023-05-25T11:54:16.554Z,58
2023-05-25T11:55:23.604Z,58
2023-05-25T11:56:35.588Z,58
2023-05-25T11:57:37.782Z,58
2023-05-25T11:58:44.979Z,58
2023-05-25T11:59:51.493Z,58
2023-05-25T12:00:58.699Z,58
2023-05-25T12:02:05.774Z,57
2023-05-25T12:03:12.925Z,57
2023-05-25T12:04:22.355Z,57
2023-05-25T12:05:26.610Z,57
2023-05-25T12:06:33.724Z,57
2023-05-25T12:07:40.703Z,57
2023-05-25T12:08:47.837Z,57
2023-05-25T12:09:54.996Z,57
2023-05-25T12:11:01.561Z,57
2023-05-25T12:12:08.641Z,57
2023-05-25T12:14:22.842Z,57
2023-05-25T12:15:29.974Z,57
2023-05-25T12:16:36.619Z,57
2023-05-25T12:17:43.827Z,57
2023-05-25T12:18:50.734Z,57
2023-05-25T12:19:58.090Z,58
2023-05-25T12:21:05.019Z,58
2023-05-25T12:22:12.079Z,58
2023-05-25T12:23:18.648Z,58
2023-05-25T12:24:25.748Z,58
2023-05-25T12:25:42.687Z,58
2023-05-25T12:26:40.123Z,58
2023-05-25T12:27:46.606Z,58
2023-05-25T12:28:53.682Z,58
2023-05-25T12:30:02.051Z,58
2023-05-25T12:31:07.901Z,58
2023-05-25T12:32:14.968Z,58
2023-05-25T12:33:21.577Z,58
2023-05-25T12:34:28.659Z,58
2023-05-25T12:35:35.833Z,58
2023-05-25T12:36:42.886Z,58
2023-05-25T12:37:49.516Z,58
2023-05-25T12:38:56.599Z,59
2023-05-25T12:40:03.764Z,59
2023-05-25T12:41:10.784Z,59
2023-05-25T12:42:17.876Z,59
2023-05-25T12:43:24.465Z,58
2023-05-25T12:44:31.623Z,58
2023-05-25T12:45:38.801Z,58
2023-05-25T12:46:45.852Z,58
2023-05-25T12:47:52.966Z,58
2023-05-25T12:48:59.600Z,58
2023-05-25T12:50:06.648Z,58
2023-05-25T12:51:13.708Z,58
2023-05-25T12:52:20.775Z,58
2023-05-25T12:53:27.978Z,57
2023-05-25T12:54:34.491Z,57
2023-05-25T12:55:41.593Z,57
2023-05-25T12:56:49.167Z,57
2023-05-25T12:57:55.807Z,57
2023-05-25T12:59:02.871Z,57
2023-05-25T13:00:09.590Z,58
2023-05-25T13:01:16.655Z,58
2023-05-25T13:02:23.719Z,58
2023-05-25T13:03:30.820Z,58
2023-05-25T13:04:37.948Z,58
2023-05-25T13:05:44.518Z,58
2023-05-25T13:06:51.675Z,58
2023-05-25T13:07:58.773Z,58
2023-05-25T13:09:05.804Z,57
2023-05-25T13:10:12.978Z,57
2023-05-25T13:11:19.549Z,58
2023-05-25T13:12:26.622Z,58
2023-05-25T13:13:33.688Z,58
2023-05-25T13:14:40.792Z,58
2023-05-25T13:15:47.923Z,58
2023-05-25T13:18:01.712Z,58
2023-05-25T13:19:08.757Z,57
2023-05-25T13:20:15.885Z,57
2023-05-25T13:21:22.944Z,57
2023-05-25T13:22:29.518Z,57
2023-05-25T13:23:36.708Z,57
2023-05-25T13:24:43.806Z,58
2023-05-25T13:25:50.845Z,57
2023-05-25T13:26:57.958Z,57
2023-05-25T13:28:04.557Z,58
2023-05-25T13:29:11.632Z,58
2023-05-25T13:30:18.775Z,58
2023-05-25T13:31:25.897Z,58
2023-05-25T13:32:32.441Z,58
2023-05-25T13:33:39.544Z,59
2023-05-25T13:34:46.675Z,58
2023-05-25T13:35:53.746Z,58
2023-05-25T13:37:00.821Z,58
2023-05-25T13:38:07.467Z,58
2023-05-25T13:39:14.537Z,58
2023-05-25T13:40:21.703Z,58
2023-05-25T13:41:28.762Z,58
2023-05-25T13:42:35.888Z,58
2023-05-25T13:43:42.408Z,58
2023-05-25T13:44:49.540Z,58
2023-05-25T13:45:56.715Z,58
2023-05-25T13:47:03.833Z,58
2023-05-25T13:48:10.917Z,58
2023-05-25T13:49:17.462Z,58
2023-05-25T13:50:25.111Z,58
2023-05-25T13:51:31.663Z,59
2023-05-25T13:52:38.782Z,59
2023-05-25T13:53:45.895Z,59
2023-05-25T13:54:52.433Z,58
2023-05-25T13:55:59.624Z,58
2023-05-25T13:57:06.683Z,58
2023-05-25T13:58:13.777Z,58
2023-05-25T13:59:20.871Z,58
2023-05-25T14:00:27.514Z,58
2023-05-25T14:01:34.668Z,58
2023-05-25T14:02:41.857Z,58
2023-05-25T14:03:48.997Z,58
2023-05-25T14:04:55.880Z,59
2023-05-25T14:06:02.532Z,59
2023-05-25T14:07:09.595Z,59
2023-05-25T14:08:16.709Z,59
2023-05-25T14:09:23.798Z,59
2023-05-25T14:10:30.887Z,59
2023-05-25T14:11:37.529Z,60
2023-05-25T14:12:44.564Z,60
2023-05-25T14:13:51.681Z,60
2023-05-25T14:14:58.812Z,59
2023-05-25T14:16:05.961Z,59
2023-05-25T14:17:12.511Z,59
2023-05-25T14:18:19.692Z,59
2023-05-25T14:19:26.761Z,59
2023-05-25T14:21:40.931Z,59
2023-05-25T14:22:47.566Z,59
2023-05-25T14:23:54.642Z,58
2023-05-25T14:25:01.767Z,58
2023-05-25T14:26:08.846Z,59
2023-05-25T14:27:15.980Z,59
2023-05-25T14:28:22.472Z,59
2023-05-25T14:29:29.654Z,58
2023-05-25T14:30:36.795Z,58
2023-05-25T14:31:43.943Z,58
2023-05-25T14:32:50.979Z,59
2023-05-25T14:33:57.566Z,59
2023-05-25T14:35:04.618Z,59
2023-05-25T14:36:12.416Z,58
2023-05-25T14:37:18.883Z,58
2023-05-25T14:38:25.441Z,58
2023-05-25T14:39:32.557Z,58
2023-05-25T14:40:39.662Z,58
2023-05-25T14:41:46.751Z,58
2023-05-25T14:42:53.892Z,58
2023-05-25T14:44:00.412Z,58
2023-05-25T14:45:10.712Z,58
2023-05-25T14:46:14.692Z,58
2023-05-25T14:47:21.754Z,59
2023-05-25T14:48:28.927Z,59
2023-05-25T14:49:35.441Z,59
2023-05-25T14:50:42.583Z,58
2023-05-25T14:51:49.663Z,58
2023-05-25T14:52:56.782Z,58
2023-05-25T14:54:03.873Z,58
2023-05-25T14:55:10.470Z,58
2023-05-25T14:56:17.530Z,58
2023-05-25T14:57:24.771Z,58
2023-05-25T14:58:31.747Z,58
2023-05-25T14:59:38.921Z,58
2023-05-25T15:00:45.416Z,58
2023-05-25T15:01:52.570Z,58
2023-05-25T15:02:59.713Z,58
2023-05-25T15:04:06.958Z,58
2023-05-25T15:05:13.872Z,58
2023-05-25T15:06:20.493Z,58
2023-05-25T15:07:27.611Z,58
2023-05-25T15:08:34.713Z,58
2023-05-25T15:09:41.783Z,58
2023-05-25T15:10:48.893Z,58
2023-05-25T15:11:55.502Z,57
2023-05-25T15:13:02.548Z,58
2023-05-25T15:14:09.714Z,58
2023-05-25T15:15:16.776Z,58
2023-05-25T15:16:23.968Z,58
2023-05-25T15:17:30.467Z,58
2023-05-25T15:18:38.147Z,58
2023-05-25T15:19:45.046Z,58
2023-05-25T15:20:51.804Z,58
2023-05-25T15:21:58.983Z,58
2023-05-25T15:23:05.542Z,57
2023-05-25T15:25:31.571Z,57
2023-05-25T15:26:26.867Z,58
2023-05-25T15:27:33.902Z,58
2023-05-25T15:28:40.455Z,58
2023-05-25T15:29:47.641Z,58
2023-05-25T15:30:54.697Z,58
2023-05-25T15:32:01.836Z,58
2023-05-25T15:33:08.510Z,58
2023-05-25T15:34:15.596Z,58
2023-05-25T15:35:22.565Z,58
2023-05-25T15:36:29.722Z,58
2023-05-25T15:37:36.814Z,58
2023-05-25T15:38:43.489Z,58
2023-05-25T15:39:50.481Z,58
2023-05-25T15:40:57.640Z,58
2023-05-25T15:42:04.789Z,58
2023-05-25T15:43:11.782Z,58
2023-05-25T15:44:18.466Z,58
2023-05-25T15:45:25.547Z,58
2023-05-25T15:46:32.658Z,58
2023-05-25T15:47:39.760Z,58
2023-05-25T15:48:46.831Z,59
2023-05-25T15:49:53.436Z,59
2023-05-25T15:51:00.537Z,59
2023-05-25T15:52:07.694Z,59
2023-05-25T15:53:14.776Z,59
2023-05-25T15:54:21.798Z,60
2023-05-25T15:55:28.472Z,59
2023-05-25T15:56:35.530Z,60
2023-05-25T15:57:42.634Z,60
2023-05-25T15:58:49.738Z,60
2023-05-25T15:59:56.897Z,60
2023-05-25T16:01:03.490Z,60
2023-05-25T16:02:10.606Z,60
2023-05-25T16:03:17.792Z,60
2023-05-25T16:04:24.854Z,61
2023-05-25T16:05:31.867Z,61
2023-05-25T16:06:38.617Z,61
2023-05-25T16:07:45.570Z,61
2023-05-25T16:08:52.661Z,61
2023-05-25T16:09:59.818Z,61
2023-05-25T16:11:06.928Z,61
2023-05-25T16:12:13.474Z,61
2023-05-25T16:13:20.557Z,61
2023-05-25T16:14:27.703Z,61
2023-05-25T16:15:34.816Z,61
2023-05-25T16:16:41.915Z,61
2023-05-25T16:17:48.465Z,61
2023-05-25T16:18:55.683Z,61
2023-05-25T16:20:02.714Z,61
2023-05-25T16:21:09.829Z,61